sensor_id;sensor_type;location;lat;lon;timestamp;temperature;humidity
75451;DHT22;64029;48.244;9.188;2023-02-28T00:01:08;-2.00;69.80
75451;DHT22;64029;48.244;9.188;2023-02-28T00:03:35;-2.00;70.00
75451;DHT22;64029;48.244;9.188;2023-02-28T00:06:02;-1.90;70.20
75451;DHT22;64029;48.244;9.188;2023-02-28T00:08:29;-1.90;70.60
75451;DHT22;64029;48.244;9.188;2023-02-28T00:11:00;-1.90;70.50
75451;DHT22;64029;48.244;9.188;2023-02-28T00:13:27;-1.90;70.30
75451;DHT22;64029;48.244;9.188;2023-02-28T00:16:03;-1.90;70.30
75451;DHT22;64029;48.244;9.188;2023-02-28T00:18:31;-1.90;70.10
75451;DHT22;64029;48.244;9.188;2023-02-28T00:20:58;-2.00;70.10
75451;DHT22;64029;48.244;9.188;2023-02-28T00:23:25;-2.00;71.60
75451;DHT22;64029;48.244;9.188;2023-02-28T00:25:52;-2.00;70.70
75451;DHT22;64029;48.244;9.188;2023-02-28T00:28:19;-2.00;70.40
75451;DHT22;64029;48.244;9.188;2023-02-28T00:30:46;-1.90;70.60
75451;DHT22;64029;48.244;9.188;2023-02-28T00:33:14;-2.00;70.40
75451;DHT22;64029;48.244;9.188;2023-02-28T00:35:41;-1.90;70.90
75451;DHT22;64029;48.244;9.188;2023-02-28T00:38:09;-1.90;70.80
75451;DHT22;64029;48.244;9.188;2023-02-28T00:40:36;-1.90;70.80
75451;DHT22;64029;48.244;9.188;2023-02-28T00:43:02;-1.90;70.70
75451;DHT22;64029;48.244;9.188;2023-02-28T00:45:29;-1.90;70.80
75451;DHT22;64029;48.244;9.188;2023-02-28T00:47:56;-2.00;70.80
75451;DHT22;64029;48.244;9.188;2023-02-28T00:50:24;-2.00;70.60
75451;DHT22;64029;48.244;9.188;2023-02-28T00:52:51;-2.00;70.80
75451;DHT22;64029;48.244;9.188;2023-02-28T00:55:18;-2.00;70.80
75451;DHT22;64029;48.244;9.188;2023-02-28T00:57:45;-2.00;70.90
75451;DHT22;64029;48.244;9.188;2023-02-28T01:00:13;-2.00;70.90
75451;DHT22;64029;48.244;9.188;2023-02-28T01:02:39;-2.00;70.80
75451;DHT22;64029;48.244;9.188;2023-02-28T01:05:07;-2.00;70.80
75451;DHT22;64029;48.244;9.188;2023-02-28T01:07:35;-2.00;71.30
75451;DHT22;64029;48.244;9.188;2023-02-28T01:10:04;-2.00;70.90
75451;DHT22;64029;48.244;9.188;2023-02-28T01:12:31;-2.00;70.90
75451;DHT22;64029;48.244;9.188;2023-02-28T01:14:58;-2.00;71.00
75451;DHT22;64029;48.244;9.188;2023-02-28T01:17:25;-2.00;70.90
75451;DHT22;64029;48.244;9.188;2023-02-28T01:19:53;-2.00;71.00
75451;DHT22;64029;48.244;9.188;2023-02-28T01:22:20;-2.00;71.50
75451;DHT22;64029;48.244;9.188;2023-02-28T01:24:48;-2.00;70.80
75451;DHT22;64029;48.244;9.188;2023-02-28T01:27:15;-2.00;71.00
75451;DHT22;64029;48.244;9.188;2023-02-28T01:29:41;-2.00;70.90
75451;DHT22;64029;48.244;9.188;2023-02-28T01:32:08;-2.00;71.10
75451;DHT22;64029;48.244;9.188;2023-02-28T01:34:35;-2.00;70.80
75451;DHT22;64029;48.244;9.188;2023-02-28T01:37:02;-2.00;70.80
75451;DHT22;64029;48.244;9.188;2023-02-28T01:39:29;-2.00;70.90
75451;DHT22;64029;48.244;9.188;2023-02-28T01:41:57;-2.00;70.90
75451;DHT22;64029;48.244;9.188;2023-02-28T01:44:57;-2.00;71.20
75451;DHT22;64029;48.244;9.188;2023-02-28T01:47:25;-2.00;71.10
75451;DHT22;64029;48.244;9.188;2023-02-28T01:49:53;-2.00;72.00
75451;DHT22;64029;48.244;9.188;2023-02-28T01:52:21;-2.00;71.70
75451;DHT22;64029;48.244;9.188;2023-02-28T01:54:52;-2.10;71.20
75451;DHT22;64029;48.244;9.188;2023-02-28T01:57:24;-2.10;71.30
75451;DHT22;64029;48.244;9.188;2023-02-28T01:59:56;-2.10;71.50
75451;DHT22;64029;48.244;9.188;2023-02-28T02:02:26;-2.10;72.20
75451;DHT22;64029;48.244;9.188;2023-02-28T02:04:56;-2.00;72.00
75451;DHT22;64029;48.244;9.188;2023-02-28T02:07:29;-2.10;71.50
75451;DHT22;64029;48.244;9.188;2023-02-28T02:10:00;-2.10;71.50
75451;DHT22;64029;48.244;9.188;2023-02-28T02:12:40;-2.10;71.60
75451;DHT22;64029;48.244;9.188;2023-02-28T02:15:13;-2.10;71.30
75451;DHT22;64029;48.244;9.188;2023-02-28T02:17:45;-2.10;71.60
75451;DHT22;64029;48.244;9.188;2023-02-28T02:20:51;-2.10;71.70
75451;DHT22;64029;48.244;9.188;2023-02-28T02:26:42;-2.10;71.50
75451;DHT22;64029;48.244;9.188;2023-02-28T02:29:36;-2.10;71.60
75451;DHT22;64029;48.244;9.188;2023-02-28T02:32:38;-2.10;72.10
75451;DHT22;64029;48.244;9.188;2023-02-28T02:35:14;-2.10;71.90
75451;DHT22;64029;48.244;9.188;2023-02-28T02:37:47;-2.10;71.70
75451;DHT22;64029;48.244;9.188;2023-02-28T02:40:18;-2.10;72.20
75451;DHT22;64029;48.244;9.188;2023-02-28T02:42:50;-2.10;71.90
75451;DHT22;64029;48.244;9.188;2023-02-28T02:45:24;-2.10;71.60
75451;DHT22;64029;48.244;9.188;2023-02-28T02:47:53;-2.10;71.70
75451;DHT22;64029;48.244;9.188;2023-02-28T02:50:26;-2.10;71.50
75451;DHT22;64029;48.244;9.188;2023-02-28T02:52:56;-2.10;71.50
75451;DHT22;64029;48.244;9.188;2023-02-28T02:55:25;-2.10;71.80
75451;DHT22;64029;48.244;9.188;2023-02-28T02:57:56;-2.10;71.80
75451;DHT22;64029;48.244;9.188;2023-02-28T03:00:27;-2.10;71.70
75451;DHT22;64029;48.244;9.188;2023-02-28T03:02:57;-2.00;71.80
75451;DHT22;64029;48.244;9.188;2023-02-28T03:05:26;-2.10;71.80
75451;DHT22;64029;48.244;9.188;2023-02-28T03:07:54;-2.10;71.70
75451;DHT22;64029;48.244;9.188;2023-02-28T03:10:36;-2.10;71.50
75451;DHT22;64029;48.244;9.188;2023-02-28T03:13:13;-2.10;71.60
75451;DHT22;64029;48.244;9.188;2023-02-28T03:15:55;-2.10;71.60
75451;DHT22;64029;48.244;9.188;2023-02-28T03:18:30;-2.10;71.60
75451;DHT22;64029;48.244;9.188;2023-02-28T03:21:04;-2.10;71.50
75451;DHT22;64029;48.244;9.188;2023-02-28T03:23:38;-2.10;71.70
75451;DHT22;64029;48.244;9.188;2023-02-28T03:26:13;-2.10;71.70
75451;DHT22;64029;48.244;9.188;2023-02-28T03:28:47;-2.10;71.70
75451;DHT22;64029;48.244;9.188;2023-02-28T03:31:18;-2.10;71.70
75451;DHT22;64029;48.244;9.188;2023-02-28T03:33:50;-2.10;71.70
75451;DHT22;64029;48.244;9.188;2023-02-28T03:36:25;-2.10;71.60
75451;DHT22;64029;48.244;9.188;2023-02-28T03:38:56;-2.10;71.60
75451;DHT22;64029;48.244;9.188;2023-02-28T03:41:31;-2.10;71.50
75451;DHT22;64029;48.244;9.188;2023-02-28T03:44:04;-2.10;71.30
75451;DHT22;64029;48.244;9.188;2023-02-28T03:46:36;-2.20;71.40
75451;DHT22;64029;48.244;9.188;2023-02-28T03:49:08;-2.20;71.60
75451;DHT22;64029;48.244;9.188;2023-02-28T03:51:40;-2.10;71.70
75451;DHT22;64029;48.244;9.188;2023-02-28T03:54:12;-2.10;71.70
75451;DHT22;64029;48.244;9.188;2023-02-28T03:56:45;-2.10;71.50
75451;DHT22;64029;48.244;9.188;2023-02-28T03:59:17;-2.10;71.50
75451;DHT22;64029;48.244;9.188;2023-02-28T04:01:47;-2.10;71.30
75451;DHT22;64029;48.244;9.188;2023-02-28T04:04:16;-2.20;71.20
75451;DHT22;64029;48.244;9.188;2023-02-28T04:06:45;-2.20;71.80
75451;DHT22;64029;48.244;9.188;2023-02-28T04:09:13;-2.10;71.70
75451;DHT22;64029;48.244;9.188;2023-02-28T04:11:42;-2.20;71.40
75451;DHT22;64029;48.244;9.188;2023-02-28T04:14:11;-2.20;71.20
75451;DHT22;64029;48.244;9.188;2023-02-28T04:16:39;-2.20;71.50
75451;DHT22;64029;48.244;9.188;2023-02-28T04:19:08;-2.10;71.50
75451;DHT22;64029;48.244;9.188;2023-02-28T04:21:36;-2.10;71.50
75451;DHT22;64029;48.244;9.188;2023-02-28T04:24:06;-2.10;71.40
75451;DHT22;64029;48.244;9.188;2023-02-28T04:26:35;-2.10;71.30
75451;DHT22;64029;48.244;9.188;2023-02-28T04:29:03;-2.10;71.50
75451;DHT22;64029;48.244;9.188;2023-02-28T04:31:30;-2.10;71.50
75451;DHT22;64029;48.244;9.188;2023-02-28T04:33:57;-2.20;71.30
75451;DHT22;64029;48.244;9.188;2023-02-28T04:36:24;-2.10;71.50
75451;DHT22;64029;48.244;9.188;2023-02-28T04:38:51;-2.10;71.40
75451;DHT22;64029;48.244;9.188;2023-02-28T04:41:19;-2.20;71.20
75451;DHT22;64029;48.244;9.188;2023-02-28T04:43:46;-2.20;71.30
75451;DHT22;64029;48.244;9.188;2023-02-28T04:46:13;-2.20;71.40
75451;DHT22;64029;48.244;9.188;2023-02-28T04:48:40;-2.20;71.30
75451;DHT22;64029;48.244;9.188;2023-02-28T04:51:10;-2.20;71.40
75451;DHT22;64029;48.244;9.188;2023-02-28T04:53:40;-2.20;71.50
75451;DHT22;64029;48.244;9.188;2023-02-28T04:56:09;-2.20;71.30
75451;DHT22;64029;48.244;9.188;2023-02-28T04:58:38;-2.20;71.40
75451;DHT22;64029;48.244;9.188;2023-02-28T05:01:06;-2.20;71.50
75451;DHT22;64029;48.244;9.188;2023-02-28T05:03:38;-2.20;71.40
75451;DHT22;64029;48.244;9.188;2023-02-28T05:06:06;-2.20;71.40
75451;DHT22;64029;48.244;9.188;2023-02-28T05:08:33;-2.20;71.40
75451;DHT22;64029;48.244;9.188;2023-02-28T05:11:00;-2.20;71.60
75451;DHT22;64029;48.244;9.188;2023-02-28T05:13:28;-2.20;71.60
75451;DHT22;64029;48.244;9.188;2023-02-28T05:15:56;-2.20;71.40
75451;DHT22;64029;48.244;9.188;2023-02-28T05:18:23;-2.20;71.40
75451;DHT22;64029;48.244;9.188;2023-02-28T05:20:50;-2.20;71.30
75451;DHT22;64029;48.244;9.188;2023-02-28T05:23:17;-2.20;71.20
75451;DHT22;64029;48.244;9.188;2023-02-28T05:25:46;-2.20;71.40
75451;DHT22;64029;48.244;9.188;2023-02-28T05:28:13;-2.10;71.50
75451;DHT22;64029;48.244;9.188;2023-02-28T05:30:40;-2.20;71.40
75451;DHT22;64029;48.244;9.188;2023-02-28T05:33:11;-2.20;71.30
75451;DHT22;64029;48.244;9.188;2023-02-28T05:35:38;-2.20;71.40
75451;DHT22;64029;48.244;9.188;2023-02-28T05:38:05;-2.10;71.40
75451;DHT22;64029;48.244;9.188;2023-02-28T05:40:32;-2.20;71.40
75451;DHT22;64029;48.244;9.188;2023-02-28T05:42:59;-2.10;71.60
75451;DHT22;64029;48.244;9.188;2023-02-28T05:45:26;-2.10;71.60
75451;DHT22;64029;48.244;9.188;2023-02-28T05:47:54;-2.10;71.40
75451;DHT22;64029;48.244;9.188;2023-02-28T05:50:22;-2.20;71.40
75451;DHT22;64029;48.244;9.188;2023-02-28T05:52:49;-2.10;71.50
75451;DHT22;64029;48.244;9.188;2023-02-28T05:55:16;-2.20;71.40
75451;DHT22;64029;48.244;9.188;2023-02-28T05:57:43;-2.20;71.40
75451;DHT22;64029;48.244;9.188;2023-02-28T06:00:12;-2.20;71.40
75451;DHT22;64029;48.244;9.188;2023-02-28T06:02:40;-2.10;71.50
75451;DHT22;64029;48.244;9.188;2023-02-28T06:05:09;-2.20;71.40
75451;DHT22;64029;48.244;9.188;2023-02-28T06:07:40;-2.10;71.40
75451;DHT22;64029;48.244;9.188;2023-02-28T06:10:08;-2.20;71.40
75451;DHT22;64029;48.244;9.188;2023-02-28T06:12:35;-2.20;71.50
75451;DHT22;64029;48.244;9.188;2023-02-28T06:15:02;-2.20;71.50
75451;DHT22;64029;48.244;9.188;2023-02-28T06:17:29;-2.10;71.70
75451;DHT22;64029;48.244;9.188;2023-02-28T06:19:56;-2.10;71.50
75451;DHT22;64029;48.244;9.188;2023-02-28T06:22:22;-2.10;71.50
75451;DHT22;64029;48.244;9.188;2023-02-28T06:24:51;-2.10;71.60
75451;DHT22;64029;48.244;9.188;2023-02-28T06:27:18;-2.20;71.50
75451;DHT22;64029;48.244;9.188;2023-02-28T06:29:45;-2.10;71.60
75451;DHT22;64029;48.244;9.188;2023-02-28T06:32:12;-2.10;71.70
75451;DHT22;64029;48.244;9.188;2023-02-28T06:34:39;-2.10;71.60
75451;DHT22;64029;48.244;9.188;2023-02-28T06:37:06;-2.10;71.70
75451;DHT22;64029;48.244;9.188;2023-02-28T06:39:33;-2.10;71.60
75451;DHT22;64029;48.244;9.188;2023-02-28T06:42:01;-2.10;71.60
75451;DHT22;64029;48.244;9.188;2023-02-28T06:44:28;-2.20;71.50
75451;DHT22;64029;48.244;9.188;2023-02-28T06:47:00;-2.20;71.60
75451;DHT22;64029;48.244;9.188;2023-02-28T06:49:28;-2.20;71.60
75451;DHT22;64029;48.244;9.188;2023-02-28T06:51:55;-2.20;71.60
75451;DHT22;64029;48.244;9.188;2023-02-28T06:54:22;-2.10;71.70
75451;DHT22;64029;48.244;9.188;2023-02-28T06:56:49;-2.10;71.80
75451;DHT22;64029;48.244;9.188;2023-02-28T06:59:17;-2.10;71.80
75451;DHT22;64029;48.244;9.188;2023-02-28T07:01:44;-2.10;71.70
75451;DHT22;64029;48.244;9.188;2023-02-28T07:04:11;-2.10;71.70
75451;DHT22;64029;48.244;9.188;2023-02-28T07:06:38;-2.10;71.70
75451;DHT22;64029;48.244;9.188;2023-02-28T07:09:06;-2.10;71.70
75451;DHT22;64029;48.244;9.188;2023-02-28T07:11:32;-2.10;71.70
75451;DHT22;64029;48.244;9.188;2023-02-28T07:13:59;-2.10;71.70
75451;DHT22;64029;48.244;9.188;2023-02-28T07:16:27;-2.10;71.70
75451;DHT22;64029;48.244;9.188;2023-02-28T07:18:54;-2.10;71.80
75451;DHT22;64029;48.244;9.188;2023-02-28T07:21:23;-2.10;71.70
75451;DHT22;64029;48.244;9.188;2023-02-28T07:23:50;-2.10;71.80
75451;DHT22;64029;48.244;9.188;2023-02-28T07:26:19;-2.10;71.80
75451;DHT22;64029;48.244;9.188;2023-02-28T07:28:47;-2.10;71.80
75451;DHT22;64029;48.244;9.188;2023-02-28T07:31:14;-2.10;71.70
75451;DHT22;64029;48.244;9.188;2023-02-28T07:33:43;-2.10;71.80
75451;DHT22;64029;48.244;9.188;2023-02-28T07:36:11;-2.10;71.80
75451;DHT22;64029;48.244;9.188;2023-02-28T07:38:41;-2.00;71.80
75451;DHT22;64029;48.244;9.188;2023-02-28T07:41:08;-2.10;71.90
75451;DHT22;64029;48.244;9.188;2023-02-28T07:43:35;-2.00;72.00
75451;DHT22;64029;48.244;9.188;2023-02-28T07:46:03;-2.00;71.90
75451;DHT22;64029;48.244;9.188;2023-02-28T07:48:30;-2.00;71.90
75451;DHT22;64029;48.244;9.188;2023-02-28T07:50:59;-2.00;71.90
75451;DHT22;64029;48.244;9.188;2023-02-28T07:53:26;-2.00;71.90
75451;DHT22;64029;48.244;9.188;2023-02-28T07:55:55;-2.00;71.90
75451;DHT22;64029;48.244;9.188;2023-02-28T07:58:22;-2.00;71.90
75451;DHT22;64029;48.244;9.188;2023-02-28T08:00:49;-1.90;72.10
75451;DHT22;64029;48.244;9.188;2023-02-28T08:03:16;-2.00;71.90
75451;DHT22;64029;48.244;9.188;2023-02-28T08:05:43;-2.00;71.80
75451;DHT22;64029;48.244;9.188;2023-02-28T08:08:12;-2.00;71.90
75451;DHT22;64029;48.244;9.188;2023-02-28T08:10:39;-2.00;71.90
75451;DHT22;64029;48.244;9.188;2023-02-28T08:13:06;-1.90;72.10
75451;DHT22;64029;48.244;9.188;2023-02-28T08:15:33;-2.00;71.90
75451;DHT22;64029;48.244;9.188;2023-02-28T08:17:59;-1.90;72.10
75451;DHT22;64029;48.244;9.188;2023-02-28T08:20:26;-1.90;72.00
75451;DHT22;64029;48.244;9.188;2023-02-28T08:22:53;-1.90;72.10
75451;DHT22;64029;48.244;9.188;2023-02-28T08:25:21;-1.90;72.00
75451;DHT22;64029;48.244;9.188;2023-02-28T08:27:50;-1.90;72.00
75451;DHT22;64029;48.244;9.188;2023-02-28T08:30:17;-1.90;72.40
75451;DHT22;64029;48.244;9.188;2023-02-28T08:32:44;-1.90;72.00
75451;DHT22;64029;48.244;9.188;2023-02-28T08:35:11;-1.80;72.10
75451;DHT22;64029;48.244;9.188;2023-02-28T08:37:38;-1.80;72.10
75451;DHT22;64029;48.244;9.188;2023-02-28T08:40:06;-1.80;72.10
75451;DHT22;64029;48.244;9.188;2023-02-28T08:42:34;-1.80;72.10
75451;DHT22;64029;48.244;9.188;2023-02-28T08:45:01;-1.70;72.30
75451;DHT22;64029;48.244;9.188;2023-02-28T08:47:28;-1.70;72.20
75451;DHT22;64029;48.244;9.188;2023-02-28T08:49:55;-1.70;72.30
75451;DHT22;64029;48.244;9.188;2023-02-28T08:52:22;-1.70;72.30
75451;DHT22;64029;48.244;9.188;2023-02-28T08:54:49;-1.70;72.30
75451;DHT22;64029;48.244;9.188;2023-02-28T08:57:16;-1.70;72.30
75451;DHT22;64029;48.244;9.188;2023-02-28T08:59:44;-1.60;72.30
75451;DHT22;64029;48.244;9.188;2023-02-28T09:02:12;-1.60;72.40
75451;DHT22;64029;48.244;9.188;2023-02-28T09:04:40;-1.60;72.30
75451;DHT22;64029;48.244;9.188;2023-02-28T09:07:06;-1.60;72.30
75451;DHT22;64029;48.244;9.188;2023-02-28T09:09:33;-1.60;72.30
75451;DHT22;64029;48.244;9.188;2023-02-28T09:12:00;-1.60;72.30
75451;DHT22;64029;48.244;9.188;2023-02-28T09:14:27;-1.60;72.30
75451;DHT22;64029;48.244;9.188;2023-02-28T09:16:55;-1.50;72.10
75451;DHT22;64029;48.244;9.188;2023-02-28T09:19:22;-1.60;72.10
75451;DHT22;64029;48.244;9.188;2023-02-28T09:21:49;-1.60;72.20
75451;DHT22;64029;48.244;9.188;2023-02-28T09:24:16;-1.50;72.20
75451;DHT22;64029;48.244;9.188;2023-02-28T09:26:43;-1.50;72.10
75451;DHT22;64029;48.244;9.188;2023-02-28T09:29:10;-1.50;72.00
75451;DHT22;64029;48.244;9.188;2023-02-28T09:31:37;-1.50;72.00
75451;DHT22;64029;48.244;9.188;2023-02-28T09:34:05;-1.50;72.10
75451;DHT22;64029;48.244;9.188;2023-02-28T09:36:32;-1.50;72.10
75451;DHT22;64029;48.244;9.188;2023-02-28T09:39:00;-1.50;72.20
75451;DHT22;64029;48.244;9.188;2023-02-28T09:41:27;-1.40;72.20
75451;DHT22;64029;48.244;9.188;2023-02-28T09:44:02;-1.40;72.20
75451;DHT22;64029;48.244;9.188;2023-02-28T09:46:33;-1.40;72.10
75451;DHT22;64029;48.244;9.188;2023-02-28T09:49:05;-1.40;72.10
75451;DHT22;64029;48.244;9.188;2023-02-28T09:51:48;-1.30;72.20
75451;DHT22;64029;48.244;9.188;2023-02-28T09:54:19;-1.30;72.20
75451;DHT22;64029;48.244;9.188;2023-02-28T09:56:50;-1.30;72.20
75451;DHT22;64029;48.244;9.188;2023-02-28T09:59:29;-1.30;72.10
75451;DHT22;64029;48.244;9.188;2023-02-28T10:02:03;-1.20;72.00
75451;DHT22;64029;48.244;9.188;2023-02-28T10:04:42;-1.30;71.90
75451;DHT22;64029;48.244;9.188;2023-02-28T10:07:19;-1.30;71.80
75451;DHT22;64029;48.244;9.188;2023-02-28T10:09:52;-1.20;72.10
75451;DHT22;64029;48.244;9.188;2023-02-28T10:12:20;-1.20;71.70
75451;DHT22;64029;48.244;9.188;2023-02-28T10:14:51;-1.20;71.80
75451;DHT22;64029;48.244;9.188;2023-02-28T10:17:21;-1.10;72.10
75451;DHT22;64029;48.244;9.188;2023-02-28T10:19:56;-1.20;71.70
75451;DHT22;64029;48.244;9.188;2023-02-28T10:22:29;-1.20;71.70
75451;DHT22;64029;48.244;9.188;2023-02-28T10:24:58;-1.10;71.90
75451;DHT22;64029;48.244;9.188;2023-02-28T10:27:30;-1.10;71.40
75451;DHT22;64029;48.244;9.188;2023-02-28T10:29:59;-1.10;71.80
75451;DHT22;64029;48.244;9.188;2023-02-28T10:32:29;-1.10;71.50
75451;DHT22;64029;48.244;9.188;2023-02-28T10:35:00;-1.10;71.60
75451;DHT22;64029;48.244;9.188;2023-02-28T10:37:27;-1.10;71.10
75451;DHT22;64029;48.244;9.188;2023-02-28T10:39:54;-1.10;71.50
75451;DHT22;64029;48.244;9.188;2023-02-28T10:42:24;-1.00;71.70
75451;DHT22;64029;48.244;9.188;2023-02-28T10:45:07;-1.00;71.50
75451;DHT22;64029;48.244;9.188;2023-02-28T10:47:48;-1.00;71.20
75451;DHT22;64029;48.244;9.188;2023-02-28T10:50:44;-1.00;71.40
75451;DHT22;64029;48.244;9.188;2023-02-28T10:53:28;-0.90;71.50
75451;DHT22;64029;48.244;9.188;2023-02-28T10:55:58;-0.90;71.60
75451;DHT22;64029;48.244;9.188;2023-02-28T10:58:28;-0.90;71.60
75451;DHT22;64029;48.244;9.188;2023-02-28T11:00:56;-0.90;71.40
75451;DHT22;64029;48.244;9.188;2023-02-28T11:03:28;-0.90;71.50
75451;DHT22;64029;48.244;9.188;2023-02-28T11:05:57;-0.80;71.40
75451;DHT22;64029;48.244;9.188;2023-02-28T11:08:23;-0.80;71.50
75451;DHT22;64029;48.244;9.188;2023-02-28T11:10:55;-0.70;71.70
75451;DHT22;64029;48.244;9.188;2023-02-28T11:13:26;-0.70;71.70
75451;DHT22;64029;48.244;9.188;2023-02-28T11:15:55;-0.70;71.60
75451;DHT22;64029;48.244;9.188;2023-02-28T11:18:28;-0.60;72.00
75451;DHT22;64029;48.244;9.188;2023-02-28T11:20:59;-0.60;71.80
75451;DHT22;64029;48.244;9.188;2023-02-28T11:23:28;-0.60;71.60
75451;DHT22;64029;48.244;9.188;2023-02-28T11:25:59;-0.50;71.50
75451;DHT22;64029;48.244;9.188;2023-02-28T11:28:29;-0.50;71.30
75451;DHT22;64029;48.244;9.188;2023-02-28T11:31:05;-0.50;70.90
75451;DHT22;64029;48.244;9.188;2023-02-28T11:33:40;-0.50;71.50
75451;DHT22;64029;48.244;9.188;2023-02-28T11:36:12;-0.50;71.20
75451;DHT22;64029;48.244;9.188;2023-02-28T11:38:40;-0.50;71.50
75451;DHT22;64029;48.244;9.188;2023-02-28T11:44:29;-0.40;71.50
75451;DHT22;64029;48.244;9.188;2023-02-28T11:47:00;-0.30;71.70
75451;DHT22;64029;48.244;9.188;2023-02-28T11:49:35;-0.30;71.40
75451;DHT22;64029;48.244;9.188;2023-02-28T11:52:16;-0.20;71.10
75451;DHT22;64029;48.244;9.188;2023-02-28T11:55:05;-0.20;71.30
75451;DHT22;64029;48.244;9.188;2023-02-28T11:57:52;-0.20;71.40
75451;DHT22;64029;48.244;9.188;2023-02-28T12:00:37;-0.10;71.20
75451;DHT22;64029;48.244;9.188;2023-02-28T12:03:14;-0.10;71.20
75451;DHT22;64029;48.244;9.188;2023-02-28T12:05:45;0.00;71.10
75451;DHT22;64029;48.244;9.188;2023-02-28T12:08:25;-0.10;70.80
75451;DHT22;64029;48.244;9.188;2023-02-28T12:11:01;0.00;71.20
75451;DHT22;64029;48.244;9.188;2023-02-28T12:13:42;0.00;70.30
75451;DHT22;64029;48.244;9.188;2023-02-28T12:16:38;0.10;71.00
75451;DHT22;64029;48.244;9.188;2023-02-28T12:19:16;0.10;70.50
75451;DHT22;64029;48.244;9.188;2023-02-28T12:22:16;0.20;70.70
75451;DHT22;64029;48.244;9.188;2023-02-28T12:27:40;0.30;70.80
75451;DHT22;64029;48.244;9.188;2023-02-28T12:30:16;0.30;70.50
75451;DHT22;64029;48.244;9.188;2023-02-28T12:32:46;0.40;70.70
75451;DHT22;64029;48.244;9.188;2023-02-28T12:35:17;0.40;70.70
75451;DHT22;64029;48.244;9.188;2023-02-28T12:37:49;0.40;70.50
75451;DHT22;64029;48.244;9.188;2023-02-28T12:40:20;0.40;70.00
75451;DHT22;64029;48.244;9.188;2023-02-28T12:42:50;0.40;70.00
75451;DHT22;64029;48.244;9.188;2023-02-28T12:45:20;0.50;70.40
75451;DHT22;64029;48.244;9.188;2023-02-28T12:47:52;0.60;69.70
75451;DHT22;64029;48.244;9.188;2023-02-28T12:50:22;0.50;70.40
75451;DHT22;64029;48.244;9.188;2023-02-28T12:52:56;0.60;70.50
75451;DHT22;64029;48.244;9.188;2023-02-28T12:55:31;0.60;70.10
75451;DHT22;64029;48.244;9.188;2023-02-28T12:58:08;0.60;70.30
75451;DHT22;64029;48.244;9.188;2023-02-28T13:00:46;0.70;70.10
75451;DHT22;64029;48.244;9.188;2023-02-28T13:03:33;0.70;70.40
75451;DHT22;64029;48.244;9.188;2023-02-28T13:06:22;0.70;69.60
75451;DHT22;64029;48.244;9.188;2023-02-28T13:09:08;0.70;69.60
75451;DHT22;64029;48.244;9.188;2023-02-28T13:11:41;0.80;70.10
75451;DHT22;64029;48.244;9.188;2023-02-28T13:14:23;0.90;70.10
75451;DHT22;64029;48.244;9.188;2023-02-28T13:16:58;0.80;69.40
75451;DHT22;64029;48.244;9.188;2023-02-28T13:19:27;0.80;69.00
75451;DHT22;64029;48.244;9.188;2023-02-28T13:21:56;0.80;69.70
75451;DHT22;64029;48.244;9.188;2023-02-28T13:24:44;0.90;69.70
75451;DHT22;64029;48.244;9.188;2023-02-28T13:27:35;1.00;70.00
75451;DHT22;64029;48.244;9.188;2023-02-28T13:33:25;1.10;70.30
75451;DHT22;64029;48.244;9.188;2023-02-28T13:36:11;1.10;69.90
75451;DHT22;64029;48.244;9.188;2023-02-28T13:38:49;1.10;69.90
75451;DHT22;64029;48.244;9.188;2023-02-28T13:41:45;1.20;69.90
75451;DHT22;64029;48.244;9.188;2023-02-28T13:44:16;1.20;70.00
75451;DHT22;64029;48.244;9.188;2023-02-28T13:50:21;1.20;69.60
75451;DHT22;64029;48.244;9.188;2023-02-28T13:53:00;1.30;70.10
75451;DHT22;64029;48.244;9.188;2023-02-28T13:55:33;1.40;70.00
75451;DHT22;64029;48.244;9.188;2023-02-28T13:58:12;1.40;69.80
75451;DHT22;64029;48.244;9.188;2023-02-28T14:01:00;1.40;70.20
75451;DHT22;64029;48.244;9.188;2023-02-28T14:03:59;1.40;69.90
75451;DHT22;64029;48.244;9.188;2023-02-28T14:06:30;1.50;70.30
75451;DHT22;64029;48.244;9.188;2023-02-28T14:09:00;1.50;69.80
75451;DHT22;64029;48.244;9.188;2023-02-28T14:11:33;1.50;69.70
75451;DHT22;64029;48.244;9.188;2023-02-28T14:14:01;1.50;69.30
75451;DHT22;64029;48.244;9.188;2023-02-28T14:16:37;1.50;69.20
75451;DHT22;64029;48.244;9.188;2023-02-28T14:19:11;1.50;69.10
75451;DHT22;64029;48.244;9.188;2023-02-28T14:21:46;1.50;69.10
75451;DHT22;64029;48.244;9.188;2023-02-28T14:24:52;1.60;69.60
75451;DHT22;64029;48.244;9.188;2023-02-28T14:27:35;1.60;69.30
75451;DHT22;64029;48.244;9.188;2023-02-28T14:30:36;1.60;69.10
75451;DHT22;64029;48.244;9.188;2023-02-28T14:33:14;1.60;69.60
75451;DHT22;64029;48.244;9.188;2023-02-28T14:35:57;1.60;69.50
75451;DHT22;64029;48.244;9.188;2023-02-28T14:38:28;1.60;69.30
75451;DHT22;64029;48.244;9.188;2023-02-28T14:40:58;1.70;69.40
75451;DHT22;64029;48.244;9.188;2023-02-28T14:43:28;1.70;69.20
75451;DHT22;64029;48.244;9.188;2023-02-28T14:45:58;1.70;69.50
75451;DHT22;64029;48.244;9.188;2023-02-28T14:48:27;1.70;69.60
75451;DHT22;64029;48.244;9.188;2023-02-28T14:50:57;1.70;68.60
75451;DHT22;64029;48.244;9.188;2023-02-28T14:53:28;1.80;70.10
75451;DHT22;64029;48.244;9.188;2023-02-28T14:55:55;1.80;69.50
75451;DHT22;64029;48.244;9.188;2023-02-28T14:58:25;1.80;69.90
75451;DHT22;64029;48.244;9.188;2023-02-28T15:00:53;1.80;69.70
75451;DHT22;64029;48.244;9.188;2023-02-28T15:03:23;1.80;70.10
75451;DHT22;64029;48.244;9.188;2023-02-28T15:05:56;1.80;69.70
75451;DHT22;64029;48.244;9.188;2023-02-28T15:08:24;1.80;70.00
75451;DHT22;64029;48.244;9.188;2023-02-28T15:10:56;1.70;69.40
75451;DHT22;64029;48.244;9.188;2023-02-28T15:13:29;1.60;69.20
75451;DHT22;64029;48.244;9.188;2023-02-28T15:16:02;1.70;70.10
75451;DHT22;64029;48.244;9.188;2023-02-28T15:18:35;1.70;70.50
75451;DHT22;64029;48.244;9.188;2023-02-28T15:21:12;1.70;69.80
75451;DHT22;64029;48.244;9.188;2023-02-28T15:23:41;1.70;69.90
75451;DHT22;64029;48.244;9.188;2023-02-28T15:26:11;1.80;70.20
75451;DHT22;64029;48.244;9.188;2023-02-28T15:28:40;1.80;69.90
75451;DHT22;64029;48.244;9.188;2023-02-28T15:31:20;1.70;70.40
75451;DHT22;64029;48.244;9.188;2023-02-28T15:33:53;1.70;69.20
75451;DHT22;64029;48.244;9.188;2023-02-28T15:36:25;1.70;69.50
75451;DHT22;64029;48.244;9.188;2023-02-28T15:38:53;1.70;69.60
75451;DHT22;64029;48.244;9.188;2023-02-28T15:41:27;1.70;69.70
75451;DHT22;64029;48.244;9.188;2023-02-28T15:44:14;1.70;69.70
75451;DHT22;64029;48.244;9.188;2023-02-28T15:46:44;1.70;69.70
75451;DHT22;64029;48.244;9.188;2023-02-28T15:49:18;1.80;70.10
75451;DHT22;64029;48.244;9.188;2023-02-28T15:51:49;1.80;70.00
75451;DHT22;64029;48.244;9.188;2023-02-28T15:54:20;1.70;68.80
75451;DHT22;64029;48.244;9.188;2023-02-28T15:56:51;1.80;70.00
75451;DHT22;64029;48.244;9.188;2023-02-28T15:59:21;1.80;69.90
75451;DHT22;64029;48.244;9.188;2023-02-28T16:02:03;1.80;70.10
75451;DHT22;64029;48.244;9.188;2023-02-28T16:04:30;1.80;69.70
75451;DHT22;64029;48.244;9.188;2023-02-28T16:07:03;1.80;69.80
75451;DHT22;64029;48.244;9.188;2023-02-28T16:09:31;1.80;69.70
75451;DHT22;64029;48.244;9.188;2023-02-28T16:12:01;1.80;69.80
75451;DHT22;64029;48.244;9.188;2023-02-28T16:14:29;1.70;68.60
75451;DHT22;64029;48.244;9.188;2023-02-28T16:17:02;1.70;70.00